CTV937 WIBB-WIII
Flight info
| Callsign | CTV937 |
|---|---|
| Flight time | 1h 23m |
| Altitude | 35000 |
| Route | ISROR T5 BUNIK |
| Aircraft | A320/M-SDE3FGHIRWY/LB1 |
Departure
| Time | 2026-05-06 04:56 |
|---|---|
| Airport | Sultan Syarif Kasim II International Airport / Roesmin Nurjadin AFB (WIBB) |
Arrival
| Time | 2026-05-06 06:20 |
|---|---|
| Airport | Soekarno-Hatta International Airport (WIII) |
| Time | Latitude | Longitude | Altitude | Speed | Heading |
|---|---|---|---|---|---|
| 2026-05-06 04:34 | 0.46441 | 101.44681 | 128 ft | 0 kts | 93° |
| 2026-05-06 04:47 | 0.46441 | 101.44674 | 127 ft | 4 kts | 94° |
| 2026-05-06 04:47 | 0.46444 | 101.44647 | 122 ft | 4 kts | 97° |
| 2026-05-06 04:48 | 0.46448 | 101.44621 | 123 ft | 4 kts | 105° |
| 2026-05-06 04:48 | 0.46458 | 101.44597 | 128 ft | 4 kts | 141° |
| 2026-05-06 04:48 | 0.46469 | 101.44591 | 128 ft | 0 kts | 182° |
| 2026-05-06 04:52 | 0.46463 | 101.44591 | 128 ft | 4 kts | 182° |
| 2026-05-06 04:52 | 0.46411 | 101.44589 | 126 ft | 11 kts | 182° |
| 2026-05-06 04:52 | 0.46322 | 101.44579 | 123 ft | 13 kts | 189° |
| 2026-05-06 04:52 | 0.46314 | 101.44540 | 128 ft | 4 kts | 320° |
| 2026-05-06 04:53 | 0.46351 | 101.44536 | 129 ft | 8 kts | 342° |
| 2026-05-06 04:53 | 0.46375 | 101.44476 | 129 ft | 12 kts | 245° |
| 2026-05-06 04:53 | 0.46285 | 101.44459 | 126 ft | 16 kts | 184° |
| 2026-05-06 04:53 | 0.46151 | 101.44454 | 127 ft | 22 kts | 181° |
| 2026-05-06 04:54 | 0.45982 | 101.44447 | 126 ft | 27 kts | 182° |
| 2026-05-06 04:54 | 0.45785 | 101.44442 | 123 ft | 28 kts | 181° |
| 2026-05-06 04:54 | 0.45579 | 101.44437 | 126 ft | 32 kts | 181° |
| 2026-05-06 04:54 | 0.45351 | 101.44430 | 126 ft | 30 kts | 182° |
| 2026-05-06 04:55 | 0.45188 | 101.44447 | 125 ft | 20 kts | 162° |
| 2026-05-06 04:55 | 0.45084 | 101.44434 | 129 ft | 13 kts | 220° |
| 2026-05-06 04:55 | 0.45110 | 101.44409 | 129 ft | 9 kts | 55° |
| 2026-05-06 04:55 | 0.45166 | 101.44425 | 128 ft | 15 kts | 1° |
| 2026-05-06 04:56 | 0.45533 | 101.44437 | 127 ft | 88 kts | 1° |
| 2026-05-06 04:56 | 0.46336 | 101.44461 | 129 ft | 141 kts | 2° |
| 2026-05-06 04:56 | 0.47404 | 101.44496 | 488 ft | 155 kts | 2° |
| 2026-05-06 04:56 | 0.48474 | 101.44537 | 1167 ft | 154 kts | 1° |
| 2026-05-06 04:57 | 0.49595 | 101.44564 | 1559 ft | 170 kts | 1° |
| 2026-05-06 04:57 | 0.50848 | 101.44662 | 1826 ft | 190 kts | 15° |
| 2026-05-06 04:57 | 0.51988 | 101.45442 | 2039 ft | 215 kts | 56° |
| 2026-05-06 04:57 | 0.52359 | 101.46924 | 2348 ft | 239 kts | 98° |
| 2026-05-06 04:58 | 0.51689 | 101.48504 | 2747 ft | 261 kts | 127° |
| 2026-05-06 04:58 | 0.50457 | 101.49879 | 3493 ft | 270 kts | 137° |
| 2026-05-06 04:58 | 0.49065 | 101.51145 | 4374 ft | 271 kts | 139° |
| 2026-05-06 04:58 | 0.47635 | 101.52392 | 5226 ft | 275 kts | 139° |
| 2026-05-06 04:59 | 0.46195 | 101.53670 | 6060 ft | 278 kts | 138° |
| 2026-05-06 04:59 | 0.44757 | 101.54988 | 6872 ft | 282 kts | 137° |
| 2026-05-06 04:59 | 0.43319 | 101.56345 | 7646 ft | 286 kts | 137° |
| 2026-05-06 04:59 | 0.41878 | 101.57743 | 8390 ft | 291 kts | 136° |
| 2026-05-06 05:00 | 0.40445 | 101.59152 | 9105 ft | 295 kts | 136° |
| 2026-05-06 05:00 | 0.38975 | 101.60603 | 9814 ft | 298 kts | 136° |
| 2026-05-06 05:00 | 0.37475 | 101.62083 | 10295 ft | 312 kts | 135° |
| 2026-05-06 05:00 | 0.35872 | 101.63672 | 10465 ft | 335 kts | 135° |
| 2026-05-06 05:01 | 0.34165 | 101.65364 | 10703 ft | 353 kts | 135° |
| 2026-05-06 05:01 | 0.32398 | 101.67112 | 11271 ft | 359 kts | 135° |
| 2026-05-06 05:01 | 0.30639 | 101.68851 | 11926 ft | 362 kts | 135° |
| 2026-05-06 05:01 | 0.28834 | 101.70635 | 12599 ft | 364 kts | 134° |
| 2026-05-06 05:02 | 0.27022 | 101.72426 | 13252 ft | 368 kts | 134° |
| 2026-05-06 05:02 | 0.25196 | 101.74232 | 13881 ft | 371 kts | 134° |
| 2026-05-06 05:02 | 0.23353 | 101.76051 | 14473 ft | 374 kts | 134° |
| 2026-05-06 05:02 | 0.21490 | 101.77886 | 15051 ft | 378 kts | 134° |
| 2026-05-06 05:03 | 0.19618 | 101.79733 | 15575 ft | 380 kts | 133° |
| 2026-05-06 05:03 | 0.17731 | 101.81601 | 16080 ft | 383 kts | 134° |
| 2026-05-06 05:03 | 0.15855 | 101.83455 | 16580 ft | 386 kts | 134° |
| 2026-05-06 05:03 | 0.13932 | 101.85351 | 17096 ft | 390 kts | 134° |
| 2026-05-06 05:04 | 0.11991 | 101.87264 | 17592 ft | 392 kts | 134° |
| 2026-05-06 05:04 | 0.10033 | 101.89185 | 18063 ft | 396 kts | 134° |
| 2026-05-06 05:04 | 0.08064 | 101.91124 | 18513 ft | 400 kts | 134° |
| 2026-05-06 05:04 | 0.06072 | 101.93094 | 18996 ft | 402 kts | 134° |
| 2026-05-06 05:05 | 0.04100 | 101.95047 | 19447 ft | 404 kts | 134° |
| 2026-05-06 05:05 | 0.02089 | 101.97041 | 19889 ft | 407 kts | 134° |
| 2026-05-06 05:05 | 0.00067 | 101.99042 | 20319 ft | 410 kts | 134° |
| 2026-05-06 05:05 | -0.01975 | 102.01057 | 20736 ft | 412 kts | 134° |
| 2026-05-06 05:06 | -0.04031 | 102.03083 | 21141 ft | 415 kts | 134° |
| 2026-05-06 05:06 | -0.06059 | 102.05086 | 21525 ft | 417 kts | 134° |
| 2026-05-06 05:06 | -0.08136 | 102.07139 | 21903 ft | 419 kts | 134° |
| 2026-05-06 05:06 | -0.10223 | 102.09201 | 22276 ft | 422 kts | 134° |
| 2026-05-06 05:07 | -0.12319 | 102.11269 | 22638 ft | 424 kts | 134° |
| 2026-05-06 05:07 | -0.14426 | 102.13345 | 22987 ft | 427 kts | 134° |
| 2026-05-06 05:07 | -0.16542 | 102.15433 | 23338 ft | 429 kts | 134° |
| 2026-05-06 05:07 | -0.18648 | 102.17512 | 23672 ft | 431 kts | 134° |
| 2026-05-06 05:08 | -0.20814 | 102.19611 | 24013 ft | 433 kts | 134° |
| 2026-05-06 05:08 | -0.23000 | 102.21688 | 24332 ft | 435 kts | 135° |
| 2026-05-06 05:08 | -0.25215 | 102.23770 | 24656 ft | 437 kts | 135° |
| 2026-05-06 05:08 | -0.27442 | 102.25854 | 24956 ft | 440 kts | 135° |
| 2026-05-06 05:09 | -0.29680 | 102.27954 | 25255 ft | 441 kts | 135° |
| 2026-05-06 05:09 | -0.31889 | 102.30036 | 25537 ft | 443 kts | 135° |
| 2026-05-06 05:09 | -0.34138 | 102.32167 | 25827 ft | 445 kts | 135° |
| 2026-05-06 05:09 | -0.36394 | 102.34309 | 26097 ft | 447 kts | 135° |
| 2026-05-06 05:10 | -0.38652 | 102.36457 | 26366 ft | 449 kts | 135° |
| 2026-05-06 05:10 | -0.40923 | 102.38615 | 26638 ft | 451 kts | 135° |
| 2026-05-06 05:10 | -0.43202 | 102.40779 | 26912 ft | 453 kts | 135° |
| 2026-05-06 05:10 | -0.45496 | 102.42953 | 27171 ft | 455 kts | 135° |
| 2026-05-06 05:11 | -0.47777 | 102.45111 | 27423 ft | 457 kts | 135° |
| 2026-05-06 05:11 | -0.50087 | 102.47295 | 27680 ft | 458 kts | 135° |
| 2026-05-06 05:11 | -0.52408 | 102.49494 | 27923 ft | 460 kts | 135° |
| 2026-05-06 05:11 | -0.54731 | 102.51697 | 28158 ft | 462 kts | 135° |
| 2026-05-06 05:12 | -0.57062 | 102.53912 | 28397 ft | 463 kts | 135° |
| 2026-05-06 05:12 | -0.59404 | 102.56141 | 28621 ft | 465 kts | 136° |
| 2026-05-06 05:12 | -0.61752 | 102.58372 | 28836 ft | 466 kts | 136° |
| 2026-05-06 05:12 | -0.64115 | 102.60615 | 29044 ft | 468 kts | 136° |
| 2026-05-06 05:13 | -0.66483 | 102.62860 | 29261 ft | 470 kts | 136° |
| 2026-05-06 05:13 | -0.68862 | 102.65111 | 29482 ft | 471 kts | 136° |
| 2026-05-06 05:13 | -0.71249 | 102.67371 | 29721 ft | 472 kts | 136° |
| 2026-05-06 05:13 | -0.73597 | 102.69592 | 30035 ft | 471 kts | 136° |
| 2026-05-06 05:14 | -0.75981 | 102.71846 | 30352 ft | 470 kts | 136° |
| 2026-05-06 05:14 | -0.78353 | 102.74092 | 30663 ft | 469 kts | 136° |
| 2026-05-06 05:14 | -0.80723 | 102.76342 | 30970 ft | 468 kts | 136° |
| 2026-05-06 05:14 | -0.83081 | 102.78585 | 31270 ft | 468 kts | 136° |
| 2026-05-06 05:15 | -0.85440 | 102.80828 | 31551 ft | 468 kts | 136° |
| 2026-05-06 05:15 | -0.87777 | 102.83050 | 31857 ft | 467 kts | 136° |
| 2026-05-06 05:15 | -0.90130 | 102.85284 | 32135 ft | 466 kts | 136° |
| 2026-05-06 05:15 | -0.92483 | 102.87518 | 32418 ft | 466 kts | 136° |
| 2026-05-06 05:16 | -0.94836 | 102.89749 | 32690 ft | 466 kts | 136° |
| 2026-05-06 05:16 | -0.97193 | 102.91976 | 32988 ft | 466 kts | 136° |
| 2026-05-06 05:16 | -0.99553 | 102.94205 | 33289 ft | 465 kts | 136° |
| 2026-05-06 05:16 | -1.01897 | 102.96419 | 33590 ft | 464 kts | 136° |
| 2026-05-06 05:17 | -1.04214 | 102.98613 | 33888 ft | 463 kts | 136° |
| 2026-05-06 05:17 | -1.06553 | 103.00828 | 34184 ft | 462 kts | 136° |
| 2026-05-06 05:17 | -1.08880 | 103.03036 | 34472 ft | 462 kts | 136° |
| 2026-05-06 05:17 | -1.11210 | 103.05251 | 34741 ft | 461 kts | 136° |
| 2026-05-06 05:18 | -1.13539 | 103.07469 | 34861 ft | 462 kts | 136° |
| 2026-05-06 05:18 | -1.18194 | 103.11901 | 34878 ft | 462 kts | 136° |
| 2026-05-06 05:19 | -1.22861 | 103.16334 | 34877 ft | 463 kts | 136° |
| 2026-05-06 05:19 | -1.27541 | 103.20764 | 34877 ft | 463 kts | 136° |
| 2026-05-06 05:20 | -1.32200 | 103.25174 | 34877 ft | 463 kts | 136° |
| 2026-05-06 05:20 | -1.36877 | 103.29609 | 34877 ft | 463 kts | 136° |
| 2026-05-06 05:21 | -1.41557 | 103.34049 | 34876 ft | 463 kts | 136° |
| 2026-05-06 05:21 | -1.46209 | 103.38464 | 34874 ft | 463 kts | 136° |
| 2026-05-06 05:22 | -1.50892 | 103.42916 | 34872 ft | 464 kts | 136° |
| 2026-05-06 05:22 | -1.55578 | 103.47364 | 34871 ft | 464 kts | 136° |
| 2026-05-06 05:23 | -1.60234 | 103.51789 | 34870 ft | 465 kts | 136° |
| 2026-05-06 05:23 | -1.67275 | 103.58468 | 34870 ft | 464 kts | 136° |
| 2026-05-06 05:24 | -1.71970 | 103.62917 | 34864 ft | 465 kts | 136° |
| 2026-05-06 05:24 | -1.76646 | 103.67351 | 34863 ft | 465 kts | 136° |
| 2026-05-06 05:25 | -1.81349 | 103.71819 | 34864 ft | 466 kts | 136° |
| 2026-05-06 05:25 | -1.86048 | 103.76280 | 34868 ft | 466 kts | 136° |
| 2026-05-06 05:26 | -1.90745 | 103.80738 | 34868 ft | 466 kts | 136° |
| 2026-05-06 05:26 | -1.95413 | 103.85179 | 34865 ft | 466 kts | 136° |
| 2026-05-06 05:27 | -2.00123 | 103.89658 | 34867 ft | 466 kts | 136° |
| 2026-05-06 05:27 | -2.04810 | 103.94101 | 34868 ft | 467 kts | 136° |
| 2026-05-06 05:28 | -2.09527 | 103.98569 | 34874 ft | 467 kts | 136° |
| 2026-05-06 05:28 | -2.14243 | 104.03040 | 34875 ft | 466 kts | 136° |
| 2026-05-06 05:29 | -2.18947 | 104.07519 | 34873 ft | 467 kts | 136° |
| 2026-05-06 05:29 | -2.23621 | 104.11973 | 34875 ft | 466 kts | 136° |
| 2026-05-06 05:30 | -2.27531 | 104.15688 | 34869 ft | 466 kts | 136° |
| 2026-05-06 05:30 | -2.32232 | 104.20149 | 34870 ft | 466 kts | 136° |
| 2026-05-06 05:31 | -2.36926 | 104.24608 | 34864 ft | 465 kts | 136° |
| 2026-05-06 05:31 | -2.42392 | 104.29809 | 34864 ft | 465 kts | 136° |
| 2026-05-06 05:32 | -2.46294 | 104.33530 | 34868 ft | 466 kts | 136° |
| 2026-05-06 05:32 | -2.50993 | 104.37994 | 34868 ft | 466 kts | 136° |
| 2026-05-06 05:33 | -2.55694 | 104.42454 | 34872 ft | 466 kts | 136° |
| 2026-05-06 05:33 | -2.60401 | 104.46913 | 34869 ft | 465 kts | 136° |
| 2026-05-06 05:34 | -2.65099 | 104.51379 | 34867 ft | 465 kts | 136° |
| 2026-05-06 05:34 | -2.69753 | 104.55818 | 34862 ft | 464 kts | 136° |
| 2026-05-06 05:35 | -2.74425 | 104.60276 | 34860 ft | 464 kts | 136° |
| 2026-05-06 05:35 | -2.79109 | 104.64723 | 34861 ft | 464 kts | 136° |
| 2026-05-06 05:36 | -2.83796 | 104.69178 | 34862 ft | 464 kts | 136° |
| 2026-05-06 05:36 | -2.88479 | 104.73631 | 34864 ft | 464 kts | 136° |
| 2026-05-06 05:37 | -2.93131 | 104.78060 | 34866 ft | 465 kts | 136° |
| 2026-05-06 05:37 | -2.97820 | 104.82526 | 34872 ft | 465 kts | 136° |
| 2026-05-06 05:38 | -3.02507 | 104.86989 | 34872 ft | 465 kts | 136° |
| 2026-05-06 05:38 | -3.07192 | 104.91451 | 34874 ft | 464 kts | 136° |
| 2026-05-06 05:39 | -3.11845 | 104.95874 | 34871 ft | 464 kts | 136° |
| 2026-05-06 05:39 | -3.16530 | 105.00333 | 34866 ft | 463 kts | 136° |
| 2026-05-06 05:40 | -3.21206 | 105.04793 | 34864 ft | 463 kts | 136° |
| 2026-05-06 05:40 | -3.25844 | 105.09215 | 34864 ft | 463 kts | 136° |
| 2026-05-06 05:41 | -3.30522 | 105.13667 | 34867 ft | 464 kts | 136° |
| 2026-05-06 05:41 | -3.35430 | 105.17851 | 34872 ft | 464 kts | 141° |
| 2026-05-06 05:42 | -3.40203 | 105.22201 | 34871 ft | 464 kts | 134° |
| 2026-05-06 05:42 | -3.44649 | 105.26830 | 34870 ft | 464 kts | 134° |
| 2026-05-06 05:43 | -3.49225 | 105.31420 | 34872 ft | 464 kts | 136° |
| 2026-05-06 05:43 | -3.53883 | 105.35847 | 34876 ft | 464 kts | 137° |
| 2026-05-06 05:44 | -3.58593 | 105.40265 | 34871 ft | 464 kts | 137° |
| 2026-05-06 05:44 | -3.63287 | 105.44717 | 34869 ft | 464 kts | 136° |
| 2026-05-06 05:45 | -3.67970 | 105.49203 | 34869 ft | 464 kts | 136° |
| 2026-05-06 05:45 | -3.72609 | 105.53649 | 34870 ft | 464 kts | 136° |
| 2026-05-06 05:46 | -3.77280 | 105.58115 | 34871 ft | 464 kts | 136° |
| 2026-05-06 05:46 | -3.81937 | 105.62550 | 34869 ft | 464 kts | 136° |
| 2026-05-06 05:47 | -3.86612 | 105.67016 | 34874 ft | 464 kts | 136° |
| 2026-05-06 05:47 | -3.91285 | 105.71487 | 34872 ft | 464 kts | 136° |
| 2026-05-06 05:48 | -3.95952 | 105.75959 | 34869 ft | 463 kts | 136° |
| 2026-05-06 05:48 | -4.00615 | 105.80413 | 34868 ft | 463 kts | 136° |
| 2026-05-06 05:49 | -4.05191 | 105.84773 | 34865 ft | 463 kts | 136° |
| 2026-05-06 05:49 | -4.09824 | 105.89200 | 34869 ft | 463 kts | 136° |
| 2026-05-06 05:50 | -4.14494 | 105.93670 | 34869 ft | 463 kts | 136° |
| 2026-05-06 05:50 | -4.19128 | 105.98109 | 34872 ft | 463 kts | 136° |
| 2026-05-06 05:51 | -4.23787 | 106.02566 | 34864 ft | 462 kts | 136° |
| 2026-05-06 05:51 | -4.28439 | 106.07025 | 34862 ft | 462 kts | 136° |
| 2026-05-06 05:52 | -4.33094 | 106.11481 | 34860 ft | 462 kts | 136° |
| 2026-05-06 05:52 | -4.37738 | 106.15915 | 34862 ft | 463 kts | 136° |
| 2026-05-06 05:53 | -4.42395 | 106.20376 | 34863 ft | 463 kts | 136° |
| 2026-05-06 05:53 | -4.47053 | 106.24843 | 34863 ft | 463 kts | 136° |
| 2026-05-06 05:54 | -4.51676 | 106.29273 | 34862 ft | 463 kts | 136° |
| 2026-05-06 05:54 | -4.56329 | 106.33726 | 34857 ft | 462 kts | 136° |
| 2026-05-06 05:55 | -4.60984 | 106.38182 | 34853 ft | 462 kts | 136° |
| 2026-05-06 05:55 | -4.65641 | 106.42646 | 34852 ft | 462 kts | 136° |
| 2026-05-06 05:56 | -4.70290 | 106.47110 | 34854 ft | 463 kts | 136° |
| 2026-05-06 05:56 | -4.74940 | 106.51572 | 34857 ft | 462 kts | 136° |
| 2026-05-06 05:57 | -4.79565 | 106.56006 | 34861 ft | 462 kts | 136° |
| 2026-05-06 05:57 | -4.84221 | 106.60444 | 34860 ft | 462 kts | 139° |
| 2026-05-06 05:58 | -4.89607 | 106.63909 | 34859 ft | 461 kts | 155° |
| 2026-05-06 05:58 | -4.95453 | 106.66565 | 34853 ft | 461 kts | 155° |
| 2026-05-06 05:59 | -5.01301 | 106.69233 | 34847 ft | 462 kts | 155° |
| 2026-05-06 05:59 | -5.07152 | 106.71839 | 34840 ft | 462 kts | 161° |
| 2026-05-06 06:00 | -5.10286 | 106.72503 | 34834 ft | 461 kts | 176° |
| 2026-05-06 06:00 | -5.13486 | 106.72329 | 34831 ft | 461 kts | 191° |
| 2026-05-06 06:00 | -5.16531 | 106.71333 | 34825 ft | 461 kts | 204° |
| 2026-05-06 06:00 | -5.19463 | 106.70011 | 34816 ft | 462 kts | 204° |
| 2026-05-06 06:01 | -5.22371 | 106.68684 | 34446 ft | 458 kts | 204° |
| 2026-05-06 06:01 | -5.25274 | 106.67351 | 33150 ft | 460 kts | 204° |
| 2026-05-06 06:01 | -5.28194 | 106.66008 | 31710 ft | 464 kts | 204° |
| 2026-05-06 06:01 | -5.31142 | 106.64656 | 30162 ft | 468 kts | 204° |
| 2026-05-06 06:02 | -5.34122 | 106.63296 | 28736 ft | 469 kts | 204° |
| 2026-05-06 06:02 | -5.37040 | 106.61968 | 27574 ft | 464 kts | 203° |
| 2026-05-06 06:02 | -5.39960 | 106.60642 | 26441 ft | 459 kts | 204° |
| 2026-05-06 06:02 | -5.42848 | 106.59331 | 25327 ft | 450 kts | 203° |
| 2026-05-06 06:03 | -5.45692 | 106.58039 | 24179 ft | 445 kts | 203° |
| 2026-05-06 06:03 | -5.48500 | 106.56762 | 23055 ft | 440 kts | 203° |
| 2026-05-06 06:03 | -5.51249 | 106.55512 | 22022 ft | 433 kts | 203° |
| 2026-05-06 06:03 | -5.53985 | 106.54271 | 21018 ft | 427 kts | 203° |
| 2026-05-06 06:04 | -5.56665 | 106.53053 | 20045 ft | 419 kts | 203° |
| 2026-05-06 06:04 | -5.59298 | 106.51853 | 19085 ft | 412 kts | 204° |
| 2026-05-06 06:04 | -5.61892 | 106.50669 | 18131 ft | 406 kts | 204° |
| 2026-05-06 06:04 | -5.64442 | 106.49505 | 17202 ft | 399 kts | 204° |
| 2026-05-06 06:05 | -5.66952 | 106.48361 | 16284 ft | 393 kts | 204° |
| 2026-05-06 06:05 | -5.69419 | 106.47238 | 15378 ft | 386 kts | 203° |
| 2026-05-06 06:05 | -5.71857 | 106.46132 | 14479 ft | 380 kts | 203° |
| 2026-05-06 06:05 | -5.74217 | 106.45061 | 13605 ft | 374 kts | 203° |
| 2026-05-06 06:06 | -5.76608 | 106.43972 | 12561 ft | 372 kts | 203° |
| 2026-05-06 06:06 | -5.78961 | 106.42900 | 11255 ft | 377 kts | 203° |
| 2026-05-06 06:06 | -5.81306 | 106.41831 | 10829 ft | 355 kts | 203° |
| 2026-05-06 06:06 | -5.83466 | 106.40841 | 10700 ft | 328 kts | 203° |
| 2026-05-06 06:07 | -5.85484 | 106.39917 | 10397 ft | 311 kts | 202° |
| 2026-05-06 06:07 | -5.87421 | 106.39031 | 9956 ft | 301 kts | 202° |
| 2026-05-06 06:07 | -5.89333 | 106.38160 | 9837 ft | 302 kts | 202° |
| 2026-05-06 06:07 | -5.91228 | 106.37302 | 9640 ft | 303 kts | 202° |
| 2026-05-06 06:08 | -5.93172 | 106.36422 | 9127 ft | 306 kts | 202° |
| 2026-05-06 06:08 | -5.95098 | 106.35550 | 8755 ft | 301 kts | 202° |
| 2026-05-06 06:08 | -5.96998 | 106.34685 | 8079 ft | 299 kts | 202° |
| 2026-05-06 06:08 | -5.98876 | 106.33824 | 7487 ft | 293 kts | 202° |
| 2026-05-06 06:09 | -6.00679 | 106.32994 | 7298 ft | 274 kts | 202° |
| 2026-05-06 06:09 | -6.02352 | 106.32227 | 7153 ft | 254 kts | 202° |
| 2026-05-06 06:09 | -6.03980 | 106.31635 | 7059 ft | 246 kts | 187° |
| 2026-05-06 06:09 | -6.05659 | 106.31557 | 6867 ft | 240 kts | 170° |
| 2026-05-06 06:10 | -6.07290 | 106.31843 | 6625 ft | 237 kts | 167° |
| 2026-05-06 06:10 | -6.08911 | 106.32135 | 6388 ft | 235 kts | 167° |
| 2026-05-06 06:10 | -6.10494 | 106.32416 | 6155 ft | 234 kts | 167° |
| 2026-05-06 06:10 | -6.12119 | 106.32705 | 5924 ft | 233 kts | 168° |
| 2026-05-06 06:11 | -6.13688 | 106.32983 | 5699 ft | 232 kts | 167° |
| 2026-05-06 06:11 | -6.15282 | 106.33263 | 5468 ft | 231 kts | 168° |
| 2026-05-06 06:11 | -6.16867 | 106.33539 | 5244 ft | 231 kts | 168° |
| 2026-05-06 06:11 | -6.18444 | 106.33816 | 5159 ft | 230 kts | 168° |
| 2026-05-06 06:12 | -6.19965 | 106.34253 | 5064 ft | 224 kts | 149° |
| 2026-05-06 06:12 | -6.21120 | 106.35198 | 4935 ft | 209 kts | 126° |
| 2026-05-06 06:12 | -6.21891 | 106.36403 | 4743 ft | 200 kts | 120° |
| 2026-05-06 06:12 | -6.22606 | 106.37555 | 4592 ft | 188 kts | 120° |
| 2026-05-06 06:13 | -6.23273 | 106.38644 | 4440 ft | 178 kts | 115° |
| 2026-05-06 06:13 | -6.23624 | 106.39790 | 4300 ft | 168 kts | 95° |
| 2026-05-06 06:13 | -6.23554 | 106.40924 | 4164 ft | 159 kts | 76° |
| 2026-05-06 06:13 | -6.23218 | 106.41822 | 4050 ft | 152 kts | 69° |
| 2026-05-06 06:14 | -6.22836 | 106.42795 | 3933 ft | 148 kts | 70° |
| 2026-05-06 06:14 | -6.22458 | 106.43755 | 3816 ft | 148 kts | 70° |
| 2026-05-06 06:14 | -6.22080 | 106.44711 | 3695 ft | 147 kts | 69° |
| 2026-05-06 06:14 | -6.21702 | 106.45664 | 3586 ft | 147 kts | 69° |
| 2026-05-06 06:15 | -6.21324 | 106.46615 | 3477 ft | 146 kts | 69° |
| 2026-05-06 06:15 | -6.20960 | 106.47531 | 3467 ft | 141 kts | 69° |
| 2026-05-06 06:15 | -6.20596 | 106.48445 | 3320 ft | 139 kts | 69° |
| 2026-05-06 06:15 | -6.20236 | 106.49349 | 3150 ft | 139 kts | 69° |
| 2026-05-06 06:16 | -6.19877 | 106.50249 | 2973 ft | 138 kts | 69° |
| 2026-05-06 06:16 | -6.19519 | 106.51148 | 2793 ft | 138 kts | 69° |
| 2026-05-06 06:16 | -6.19162 | 106.52046 | 2608 ft | 138 kts | 68° |
| 2026-05-06 06:16 | -6.18804 | 106.52945 | 2428 ft | 138 kts | 68° |
| 2026-05-06 06:17 | -6.18449 | 106.53836 | 2245 ft | 137 kts | 68° |
| 2026-05-06 06:17 | -6.18093 | 106.54730 | 2064 ft | 137 kts | 68° |
| 2026-05-06 06:17 | -6.17740 | 106.55617 | 1878 ft | 137 kts | 68° |
| 2026-05-06 06:17 | -6.17386 | 106.56505 | 1700 ft | 137 kts | 67° |
| 2026-05-06 06:18 | -6.17033 | 106.57395 | 1517 ft | 137 kts | 67° |
| 2026-05-06 06:18 | -6.16679 | 106.58280 | 1337 ft | 136 kts | 66° |
| 2026-05-06 06:18 | -6.16327 | 106.59165 | 1152 ft | 136 kts | 66° |
| 2026-05-06 06:18 | -6.15975 | 106.60049 | 984 ft | 136 kts | 66° |
| 2026-05-06 06:19 | -6.15621 | 106.60938 | 793 ft | 137 kts | 66° |
| 2026-05-06 06:19 | -6.15267 | 106.61824 | 618 ft | 137 kts | 66° |
| 2026-05-06 06:19 | -6.14918 | 106.62700 | 427 ft | 136 kts | 67° |
| 2026-05-06 06:19 | -6.14566 | 106.63584 | 250 ft | 137 kts | 66° |
| 2026-05-06 06:20 | -6.14210 | 106.64472 | 50 ft | 136 kts | 67° |
| 2026-05-06 06:20 | -6.13911 | 106.65207 | 38 ft | 76 kts | 67° |
| 2026-05-06 06:20 | -6.13789 | 106.65505 | 39 ft | 35 kts | 68° |
| 2026-05-06 06:20 | -6.13685 | 106.65779 | 37 ft | 47 kts | 69° |
| 2026-05-06 06:21 | -6.13570 | 106.66070 | 38 ft | 33 kts | 64° |
| 2026-05-06 06:21 | -6.13457 | 106.66225 | 40 ft | 23 kts | 44° |
| 2026-05-06 06:21 | -6.13347 | 106.66296 | 39 ft | 13 kts | 8° |
| 2026-05-06 06:21 | -6.13302 | 106.66247 | 39 ft | 11 kts | 251° |
| 2026-05-06 06:22 | -6.13325 | 106.66178 | 38 ft | 10 kts | 251° |
| 2026-05-06 06:22 | -6.13351 | 106.66116 | 38 ft | 10 kts | 247° |
| 2026-05-06 06:22 | -6.13382 | 106.66042 | 38 ft | 13 kts | 247° |
| 2026-05-06 06:22 | -6.13418 | 106.65954 | 38 ft | 15 kts | 248° |
| 2026-05-06 06:23 | -6.13420 | 106.65855 | 36 ft | 15 kts | 314° |
| 2026-05-06 06:23 | -6.13319 | 106.65811 | 37 ft | 9 kts | 347° |
| 2026-05-06 06:23 | -6.13261 | 106.65787 | 38 ft | 7 kts | 298° |
| 2026-05-06 06:23 | -6.13255 | 106.65757 | 38 ft | 1 kts | 278° |
| 2026-05-06 06:24 | -6.13254 | 106.65746 | 38 ft | 0 kts | 278° |
| 2026-05-06 06:24 | -6.13253 | 106.65743 | 38 ft | 0 kts | 278° |